createdAt,value
2023-05-12T00:00:13.731Z,44.26
2023-05-12T00:01:13.743Z,42.75
2023-05-12T00:02:13.798Z,44.41
2023-05-12T00:03:13.791Z,45.25
2023-05-12T00:04:13.749Z,46.15
2023-05-12T00:05:13.732Z,45.47
2023-05-12T00:06:13.708Z,46.73
2023-05-12T00:07:13.730Z,42.53
2023-05-12T00:08:13.657Z,41.48
2023-05-12T00:09:13.662Z,41.61
2023-05-12T00:10:13.690Z,42.76
2023-05-12T00:11:13.667Z,41.74
2023-05-12T00:12:13.639Z,41.28
2023-05-12T00:13:13.640Z,41.88
2023-05-12T00:14:13.612Z,42.03
2023-05-12T00:15:13.612Z,42.61
2023-05-12T00:16:13.656Z,41.84
2023-05-12T00:17:13.581Z,41.34
2023-05-12T00:18:13.586Z,41.54
2023-05-12T00:19:13.553Z,41.38
2023-05-12T00:20:13.567Z,41.33
2023-05-12T00:21:13.580Z,41.88
2023-05-12T00:22:13.558Z,42.72
2023-05-12T00:23:13.562Z,41.68
2023-05-12T00:24:13.515Z,40.50
2023-05-12T00:25:13.498Z,40.68
2023-05-12T00:26:13.526Z,40.83
2023-05-12T00:27:13.483Z,40.96
2023-05-12T00:28:13.483Z,41.67
2023-05-12T00:29:13.472Z,41.95
2023-05-12T00:30:13.483Z,42.50
2023-05-12T00:31:13.508Z,44.68
2023-05-12T00:32:13.450Z,42.99
2023-05-12T00:33:13.440Z,42.99
2023-05-12T00:34:13.449Z,43.15
2023-05-12T00:35:13.439Z,43.55
2023-05-12T00:36:13.418Z,42.06
2023-05-12T00:37:13.408Z,41.32
2023-05-12T00:38:13.386Z,40.55
2023-05-12T00:39:13.399Z,41.21
2023-05-12T00:40:13.375Z,41.06
2023-05-12T00:41:13.373Z,40.68
2023-05-12T00:42:13.368Z,43.67
2023-05-12T00:43:13.436Z,40.67
2023-05-12T00:44:13.345Z,40.36
2023-05-12T00:45:13.340Z,41.36
2023-05-12T00:46:13.321Z,41.59
2023-05-12T00:47:13.309Z,41.05
2023-05-12T00:48:13.323Z,40.66
2023-05-12T00:49:13.309Z,41.37
2023-05-12T00:50:13.292Z,40.57
2023-05-12T00:51:13.326Z,41.13
2023-05-12T00:52:13.259Z,41.41
2023-05-12T00:53:13.252Z,41.33
2023-05-12T00:54:13.249Z,42.95
2023-05-12T00:55:13.259Z,42.32
2023-05-12T00:56:13.224Z,41.41
2023-05-12T00:57:13.222Z,41.08
2023-05-12T00:58:13.213Z,40.83
2023-05-12T00:59:13.199Z,40.77
2023-05-12T01:00:13.201Z,41.51
2023-05-12T01:01:13.211Z,41.94
2023-05-12T01:02:13.183Z,41.68
2023-05-12T01:03:13.317Z,41.26
2023-05-12T01:04:13.171Z,41.22
2023-05-12T01:05:13.137Z,41.09
2023-05-12T01:06:13.140Z,42.02
2023-05-12T01:07:13.109Z,43.60
2023-05-12T01:08:13.112Z,41.93
2023-05-12T01:09:13.121Z,41.07
2023-05-12T01:10:13.090Z,41.15
2023-05-12T01:11:13.073Z,40.74
2023-05-12T01:12:13.086Z,41.14
2023-05-12T01:13:13.054Z,41.09
2023-05-12T01:14:13.031Z,41.15
2023-05-12T01:15:13.093Z,40.72
2023-05-12T01:16:13.025Z,40.77
2023-05-12T01:17:13.072Z,40.90
2023-05-12T01:18:13.090Z,41.07
2023-05-12T01:19:13.083Z,40.53
2023-05-12T01:20:12.975Z,40.19
2023-05-12T01:21:12.991Z,40.47
2023-05-12T01:22:12.967Z,44.88
2023-05-12T01:23:13.971Z,42.17
2023-05-12T01:24:12.947Z,40.92
2023-05-12T01:25:12.953Z,41.27
2023-05-12T01:26:12.939Z,41.97
2023-05-12T01:27:12.950Z,42.04
2023-05-12T01:28:12.957Z,41.82
2023-05-12T01:29:12.912Z,41.50
2023-05-12T01:30:12.900Z,41.75
2023-05-12T01:31:12.941Z,42.23
2023-05-12T01:32:12.913Z,42.04
2023-05-12T01:33:12.917Z,41.16
2023-05-12T01:34:12.874Z,41.37
2023-05-12T01:35:12.864Z,41.14
2023-05-12T01:36:12.820Z,40.88
2023-05-12T01:37:12.952Z,41.21
2023-05-12T01:38:12.851Z,41.93
2023-05-12T01:39:12.857Z,42.88
2023-05-12T01:40:12.800Z,43.03
2023-05-12T01:41:12.811Z,41.46
2023-05-12T01:42:12.823Z,40.74
2023-05-12T01:43:12.779Z,41.10
2023-05-12T01:44:12.744Z,40.79
2023-05-12T01:45:12.766Z,41.04
2023-05-12T01:46:12.761Z,42.24
2023-05-12T01:47:12.725Z,41.85
2023-05-12T01:48:12.733Z,43.40
2023-05-12T01:49:12.726Z,43.37
2023-05-12T01:50:12.730Z,41.59
2023-05-12T01:51:12.712Z,41.42
2023-05-12T01:52:12.735Z,40.51
2023-05-12T01:53:12.743Z,44.68
2023-05-12T01:54:12.677Z,41.23
2023-05-12T01:55:12.655Z,41.51
2023-05-12T01:56:12.662Z,41.29
2023-05-12T01:57:12.681Z,41.42
2023-05-12T01:58:12.615Z,41.11
2023-05-12T01:59:12.627Z,40.99
2023-05-12T02:00:12.614Z,40.42
2023-05-12T02:01:12.636Z,40.70
2023-05-12T02:02:12.734Z,41.04
2023-05-12T02:03:12.670Z,41.11
2023-05-12T02:04:12.591Z,41.39
2023-05-12T02:05:12.580Z,42.83
2023-05-12T02:06:12.576Z,41.99
2023-05-12T02:07:12.539Z,41.67
2023-05-12T02:08:12.533Z,45.17
2023-05-12T02:09:12.510Z,42.34
2023-05-12T02:10:12.505Z,41.86
2023-05-12T02:11:12.507Z,42.03
2023-05-12T02:12:12.510Z,41.74
2023-05-12T02:13:12.536Z,41.70
2023-05-12T02:14:12.489Z,41.15
2023-05-12T02:15:12.495Z,40.97
2023-05-12T02:16:12.472Z,41.83
2023-05-12T02:17:12.457Z,41.42
2023-05-12T02:18:12.431Z,41.44
2023-05-12T02:19:12.467Z,40.97
2023-05-12T02:20:12.574Z,41.22
2023-05-12T02:21:12.427Z,41.25
2023-05-12T02:22:12.371Z,41.21
2023-05-12T02:23:12.479Z,44.96
2023-05-12T02:24:14.816Z,43.69
2023-05-12T02:25:13.328Z,43.21
2023-05-12T02:26:12.364Z,42.20
2023-05-12T02:27:12.375Z,42.45
2023-05-12T02:28:12.344Z,45.54
2023-05-12T02:29:12.375Z,43.22
2023-05-12T02:30:12.386Z,42.93
2023-05-12T02:31:12.334Z,45.22
2023-05-12T02:32:12.601Z,42.24
2023-05-12T02:33:12.388Z,42.98
2023-05-12T02:34:12.277Z,43.70
2023-05-12T02:35:12.293Z,47.06
2023-05-12T02:36:12.252Z,45.36
2023-05-12T02:37:12.293Z,44.74
2023-05-12T02:38:12.251Z,45.75
2023-05-12T02:39:12.281Z,46.91
2023-05-12T02:40:12.217Z,45.31
2023-05-12T02:41:12.225Z,45.81
2023-05-12T02:42:12.232Z,45.12
2023-05-12T02:43:12.260Z,45.99
2023-05-12T02:44:12.168Z,47.49
2023-05-12T02:45:12.183Z,47.95
2023-05-12T02:46:12.199Z,48.12
2023-05-12T02:47:12.162Z,48.38
2023-05-12T02:48:12.127Z,48.72
2023-05-12T02:49:12.149Z,48.35
2023-05-12T02:50:12.096Z,47.99
2023-05-12T02:51:12.098Z,49.21
2023-05-12T02:52:12.226Z,49.42
2023-05-12T02:53:12.093Z,49.93
2023-05-12T02:54:12.091Z,52.14
2023-05-12T02:55:12.060Z,52.26
2023-05-12T02:56:12.063Z,50.47
2023-05-12T02:57:12.053Z,51.90
2023-05-12T02:58:12.050Z,52.98
2023-05-12T02:59:12.022Z,57.62
2023-05-12T03:00:12.000Z,51.26
2023-05-12T03:01:12.214Z,49.93
2023-05-12T03:02:12.089Z,53.36
2023-05-12T03:03:12.081Z,49.28
2023-05-12T03:04:11.963Z,49.42
2023-05-12T03:05:11.968Z,56.51
2023-05-12T03:06:11.971Z,55.45
2023-05-12T03:07:11.978Z,54.38
2023-05-12T03:08:11.966Z,55.47
2023-05-12T03:09:11.899Z,54.42
2023-05-12T03:10:11.915Z,54.53
2023-05-12T03:11:11.921Z,52.05
2023-05-12T03:12:11.907Z,50.71
2023-05-12T03:13:11.882Z,50.50
2023-05-12T03:14:11.903Z,51.12
2023-05-12T03:15:11.908Z,51.04
2023-05-12T03:16:11.872Z,51.00
2023-05-12T03:17:11.982Z,50.00
2023-05-12T03:18:11.992Z,49.94
2023-05-12T03:19:11.974Z,56.39
2023-05-12T03:20:11.800Z,51.68
2023-05-12T03:21:11.845Z,49.94
2023-05-12T03:22:11.808Z,52.02
2023-05-12T03:23:11.763Z,53.89
2023-05-12T03:24:11.770Z,52.49
2023-05-12T03:25:11.776Z,50.90
2023-05-12T03:26:11.751Z,51.72
2023-05-12T03:27:11.743Z,53.33
2023-05-12T03:28:11.731Z,51.89
2023-05-12T03:29:11.685Z,52.71
2023-05-12T03:30:11.714Z,51.76
2023-05-12T03:31:11.709Z,53.45
2023-05-12T03:32:11.705Z,54.29
2023-05-12T03:33:11.708Z,54.06
2023-05-12T03:34:11.681Z,51.33
2023-05-12T03:35:11.684Z,51.36
2023-05-12T03:36:11.646Z,51.90
2023-05-12T03:37:11.708Z,51.90
2023-05-12T03:38:11.632Z,52.59
2023-05-12T03:39:11.620Z,52.17
2023-05-12T03:40:11.619Z,51.47
2023-05-12T03:41:11.607Z,54.84
2023-05-12T03:42:11.576Z,49.70
2023-05-12T03:43:11.573Z,45.44
2023-05-12T03:44:11.574Z,49.55
2023-05-12T03:45:11.562Z,48.59
2023-05-12T03:46:11.597Z,49.75
2023-05-12T03:47:11.644Z,49.57
2023-05-12T03:48:11.568Z,50.25
2023-05-12T03:49:11.556Z,50.38
2023-05-12T03:50:11.506Z,48.47
2023-05-12T03:51:11.510Z,47.66
2023-05-12T03:52:11.489Z,44.64
2023-05-12T03:53:11.467Z,48.46
2023-05-12T03:54:11.484Z,48.60
2023-05-12T03:55:11.463Z,48.53
2023-05-12T03:56:11.429Z,49.44
2023-05-12T03:57:11.430Z,51.96
2023-05-12T03:58:11.414Z,44.05
2023-05-12T03:59:11.403Z,47.23
2023-05-12T04:00:11.426Z,48.26
2023-05-12T04:01:11.395Z,49.03
2023-05-12T04:02:11.410Z,53.72
2023-05-12T04:03:11.450Z,53.63
2023-05-12T04:04:11.504Z,51.88
2023-05-12T04:05:11.349Z,48.43
2023-05-12T04:06:11.361Z,52.04
2023-05-12T04:07:11.337Z,56.48
2023-05-12T04:08:11.363Z,47.55
2023-05-12T04:09:11.319Z,44.06
2023-05-12T04:10:11.324Z,49.49
2023-05-12T04:11:11.338Z,48.23
2023-05-12T04:12:11.281Z,51.89
2023-05-12T04:13:11.420Z,52.78
2023-05-12T04:14:11.285Z,53.59
2023-05-12T04:15:11.252Z,51.74
2023-05-12T04:16:11.291Z,55.54
2023-05-12T04:17:11.261Z,51.88
2023-05-12T04:18:11.284Z,49.89
2023-05-12T04:19:11.290Z,55.82
2023-05-12T04:20:11.207Z,54.36
2023-05-12T04:21:11.225Z,51.05
2023-05-12T04:22:11.231Z,51.29
2023-05-12T04:23:11.198Z,53.45
2023-05-12T04:24:12.874Z,50.30
2023-05-12T04:25:11.170Z,58.00
2023-05-12T04:26:11.212Z,55.12
2023-05-12T04:27:11.142Z,45.31
2023-05-12T04:28:12.295Z,47.00
2023-05-12T04:29:12.113Z,56.55
2023-05-12T04:30:11.127Z,53.79
2023-05-12T04:31:11.113Z,52.08
2023-05-12T04:32:11.115Z,53.01
2023-05-12T04:33:11.139Z,50.02
2023-05-12T04:34:11.103Z,53.05
2023-05-12T04:35:10.995Z,50.02
2023-05-12T04:36:11.026Z,50.98
2023-05-12T04:37:10.999Z,51.10
2023-05-12T04:38:10.969Z,52.14
2023-05-12T04:39:11.977Z,52.49
2023-05-12T04:40:10.996Z,51.64
2023-05-12T04:41:10.949Z,52.42
2023-05-12T04:42:10.929Z,50.30
2023-05-12T04:43:59.876Z,50.59
2023-05-12T04:44:12.912Z,52.94
2023-05-12T04:45:10.921Z,53.67
2023-05-12T04:46:10.905Z,50.20
2023-05-12T04:47:10.880Z,48.10
2023-05-12T04:48:10.869Z,50.22
2023-05-12T04:49:10.851Z,51.05
2023-05-12T04:50:10.879Z,50.23
2023-05-12T04:51:10.836Z,48.94
2023-05-12T04:52:10.817Z,51.94
2023-05-12T04:53:11.501Z,52.03
2023-05-12T04:54:11.806Z,54.14
2023-05-12T04:55:10.812Z,50.87
2023-05-12T04:56:10.783Z,50.15
2023-05-12T04:57:10.777Z,46.06
2023-05-12T04:58:10.771Z,53.00
2023-05-12T04:59:10.766Z,52.12
2023-05-12T05:00:10.891Z,54.49
2023-05-12T05:03:55.648Z,54.58
2023-05-12T05:04:55.636Z,53.55
2023-05-12T05:05:55.602Z,52.40
2023-05-12T05:06:55.560Z,50.15
2023-05-12T05:07:55.549Z,44.98
2023-05-12T05:08:55.554Z,53.10
2023-05-12T05:09:55.535Z,54.96
2023-05-12T05:10:55.512Z,49.99
2023-05-12T05:11:55.509Z,50.51
2023-05-12T05:12:55.500Z,51.16
2023-05-12T05:13:55.500Z,45.29
2023-05-12T05:14:55.471Z,46.02
2023-05-12T05:15:55.579Z,53.43
2023-05-12T05:16:55.464Z,47.73
2023-05-12T05:17:55.500Z,52.19
2023-05-12T05:18:55.498Z,52.33
2023-05-12T05:19:59.022Z,54.06
2023-05-12T05:20:58.374Z,49.14
2023-05-12T05:21:55.413Z,54.94
2023-05-12T05:22:55.412Z,51.52
2023-05-12T05:23:55.402Z,54.24
2023-05-12T05:24:55.372Z,58.17
2023-05-12T05:25:55.405Z,52.61
2023-05-12T05:26:55.353Z,51.86
2023-05-12T05:27:55.352Z,54.08
2023-05-12T05:28:55.343Z,59.77
2023-05-12T05:29:55.320Z,55.63
2023-05-12T05:30:55.360Z,51.98
2023-05-12T05:31:55.458Z,56.92
2023-05-12T05:32:55.324Z,48.82
2023-05-12T05:33:55.347Z,53.63
2023-05-12T05:34:55.268Z,55.54
2023-05-12T05:35:55.258Z,50.07
2023-05-12T05:36:55.311Z,49.91
2023-05-12T05:37:55.259Z,53.99
2023-05-12T05:38:55.308Z,48.67
2023-05-12T05:40:38.598Z,50.14
2023-05-12T05:44:48.156Z,51.55
2023-05-12T05:45:48.133Z,55.24
2023-05-12T05:46:48.188Z,52.72
2023-05-12T05:47:48.259Z,55.62
2023-05-12T05:49:09.100Z,56.17
2023-05-12T05:49:48.095Z,56.49
2023-05-12T05:50:48.092Z,52.56
2023-05-12T05:51:48.081Z,54.76
2023-05-12T05:52:48.218Z,52.90
2023-05-12T05:53:48.048Z,54.94
2023-05-12T05:54:48.046Z,57.50
2023-05-12T05:55:48.043Z,50.98
2023-05-12T05:56:48.100Z,48.80
2023-05-12T06:00:14.005Z,54.38
2023-05-12T06:01:13.972Z,52.07
2023-05-12T06:02:13.991Z,54.35
2023-05-12T06:03:14.031Z,54.94
2023-05-12T06:04:13.974Z,52.14
2023-05-12T06:05:14.404Z,50.71
2023-05-12T06:06:13.921Z,51.31
2023-05-12T06:07:13.912Z,49.58
2023-05-12T06:08:13.992Z,47.72
2023-05-12T06:09:13.902Z,53.41
2023-05-12T06:10:13.885Z,52.33
2023-05-12T06:11:15.307Z,50.86
2023-05-12T06:12:13.863Z,56.76
2023-05-12T06:13:13.850Z,48.86
2023-05-12T06:14:13.849Z,50.86
2023-05-12T06:15:13.836Z,47.75
2023-05-12T06:16:13.846Z,47.60
2023-05-12T06:17:13.829Z,48.33
2023-05-12T06:18:13.794Z,46.07
2023-05-12T06:19:13.821Z,50.62
2023-05-12T06:20:13.777Z,53.11
2023-05-12T06:21:13.781Z,47.42
2023-05-12T06:22:13.745Z,45.87
2023-05-12T06:23:13.740Z,49.94
2023-05-12T06:24:13.875Z,55.00
2023-05-12T06:25:13.717Z,45.40
2023-05-12T06:26:13.784Z,58.32
2023-05-12T06:29:39.690Z,48.00
2023-05-12T06:37:38.158Z,48.08
2023-05-12T06:38:23.839Z,55.21
2023-05-12T06:39:23.576Z,48.86
2023-05-12T06:40:23.635Z,49.21
2023-05-12T06:41:23.540Z,49.03
2023-05-12T06:42:23.560Z,53.66
2023-05-12T06:43:23.516Z,48.26
2023-05-12T06:44:23.464Z,46.39
2023-05-12T06:45:23.637Z,53.76
2023-05-12T06:46:23.570Z,47.90
2023-05-12T06:47:23.483Z,48.36
2023-05-12T06:48:23.501Z,55.55
2023-05-12T06:49:23.835Z,56.56
2023-05-12T06:50:23.491Z,53.71
2023-05-12T06:53:49.349Z,48.96
2023-05-12T06:54:49.333Z,52.95
2023-05-12T06:55:49.329Z,50.38
2023-05-12T06:56:49.315Z,47.39
2023-05-12T06:57:49.311Z,50.35
2023-05-12T06:58:49.291Z,49.30
2023-05-12T06:59:49.283Z,47.92
2023-05-12T07:00:49.282Z,48.68
2023-05-12T07:01:49.334Z,46.14
2023-05-12T07:02:49.307Z,46.64
2023-05-12T07:03:49.593Z,49.99
2023-05-12T07:04:49.242Z,52.40
2023-05-12T07:05:49.277Z,51.53
2023-05-12T07:06:49.226Z,49.95
2023-05-12T07:07:49.228Z,56.92
2023-05-12T07:08:49.186Z,45.69
2023-05-12T07:09:49.184Z,53.19
2023-05-12T07:10:49.186Z,47.35
2023-05-12T07:11:55.996Z,51.62
2023-05-12T07:13:16.988Z,50.28
2023-05-12T07:13:49.140Z,49.71
2023-05-12T07:14:49.140Z,48.18
2023-05-12T07:15:49.147Z,48.69
2023-05-12T07:16:49.097Z,44.29
2023-05-12T07:17:49.131Z,46.67
2023-05-12T07:18:49.148Z,47.21
2023-05-12T07:19:49.089Z,47.93
2023-05-12T07:20:49.089Z,50.85
2023-05-12T07:21:49.074Z,46.92
2023-05-12T07:22:49.048Z,48.12
2023-05-12T07:23:49.052Z,48.33
2023-05-12T07:24:49.085Z,45.06
2023-05-12T07:25:49.015Z,44.38
2023-05-12T07:26:49.006Z,45.63
2023-05-12T07:27:48.987Z,47.22
2023-05-12T07:28:48.993Z,51.48
2023-05-12T07:29:48.970Z,51.77
2023-05-12T07:30:48.957Z,44.57
2023-05-12T07:31:49.074Z,52.56
2023-05-12T07:32:49.007Z,46.26
2023-05-12T07:33:48.934Z,45.33
2023-05-12T07:34:48.933Z,43.89
2023-05-12T07:35:48.901Z,42.44
2023-05-12T07:36:48.914Z,45.02
2023-05-12T07:37:48.883Z,51.55
2023-05-12T07:38:48.899Z,48.88
2023-05-12T07:39:48.887Z,45.94
2023-05-12T07:40:48.850Z,52.02
2023-05-12T07:41:48.843Z,51.63
2023-05-12T07:42:48.827Z,53.06
2023-05-12T07:43:48.842Z,47.33
2023-05-12T07:44:48.834Z,47.91
2023-05-12T07:45:48.795Z,46.04
2023-05-12T07:46:48.883Z,41.68
2023-05-12T07:47:48.889Z,51.70
2023-05-12T07:48:48.791Z,47.04
2023-05-12T07:49:48.763Z,47.27
2023-05-12T07:50:48.756Z,46.26
2023-05-12T07:51:48.745Z,52.89
2023-05-12T07:52:48.769Z,52.35
2023-05-12T07:53:48.733Z,48.52
2023-05-12T07:54:48.710Z,51.98
2023-05-12T07:55:48.707Z,51.27
2023-05-12T07:56:48.689Z,49.21
2023-05-12T07:57:48.691Z,46.54
2023-05-12T07:58:48.693Z,50.24
2023-05-12T07:59:48.648Z,51.49
2023-05-12T08:00:48.639Z,50.94
2023-05-12T08:01:48.781Z,50.48
2023-05-12T08:02:48.815Z,47.57
2023-05-12T08:03:48.754Z,54.45
2023-05-12T08:04:48.614Z,53.14
2023-05-12T08:05:48.614Z,52.26
2023-05-12T08:06:48.632Z,50.76
2023-05-12T08:07:48.584Z,50.94
2023-05-12T08:08:48.603Z,49.29
2023-05-12T08:09:48.576Z,48.61
2023-05-12T08:10:48.535Z,48.07
2023-05-12T08:11:50.837Z,47.81
2023-05-12T08:12:48.509Z,42.33
2023-05-12T08:13:48.534Z,47.40
2023-05-12T08:14:48.510Z,51.55
2023-05-12T08:15:48.504Z,46.60
2023-05-12T08:16:48.585Z,47.95
2023-05-12T08:17:49.061Z,51.73
2023-05-12T08:18:48.537Z,54.26
2023-05-12T08:19:48.992Z,52.68
2023-05-12T08:20:48.475Z,49.40
2023-05-12T08:21:48.413Z,49.21
2023-05-12T08:22:48.419Z,46.17
2023-05-12T08:23:48.404Z,45.43
2023-05-12T08:24:48.609Z,53.29
2023-05-12T08:25:48.439Z,51.54
2023-05-12T08:26:48.360Z,52.05
2023-05-12T08:27:48.365Z,54.52
2023-05-12T08:28:48.393Z,48.47
2023-05-12T08:30:06.627Z,53.05
2023-05-12T08:30:50.091Z,44.96
2023-05-12T08:31:48.320Z,44.53
2023-05-12T08:32:48.398Z,50.37
2023-05-12T08:33:51.844Z,49.07
2023-05-12T08:34:49.286Z,48.37
2023-05-12T08:35:48.280Z,51.71
2023-05-12T08:36:48.276Z,48.93
2023-05-12T08:37:48.265Z,48.03
2023-05-12T08:38:48.259Z,58.96
2023-05-12T08:39:48.263Z,49.41
2023-05-12T08:40:48.233Z,46.24
2023-05-12T08:41:48.243Z,46.38
2023-05-12T08:42:48.257Z,46.88
2023-05-12T08:43:48.231Z,49.05
2023-05-12T08:44:48.459Z,52.02
2023-05-12T08:45:48.168Z,46.97
2023-05-12T08:46:48.247Z,47.20
2023-05-12T08:47:48.204Z,51.01
2023-05-12T08:48:48.148Z,47.59
2023-05-12T08:49:49.855Z,47.28
2023-05-12T08:50:48.112Z,50.62
2023-05-12T08:51:56.477Z,47.12
2023-05-12T08:52:49.096Z,46.99
2023-05-12T08:53:48.110Z,52.97
2023-05-12T08:54:55.444Z,50.41
2023-05-12T08:57:08.218Z,48.49
2023-05-12T08:57:48.054Z,53.20
2023-05-12T08:58:48.031Z,45.76
2023-05-12T08:59:48.026Z,44.95
2023-05-12T09:00:48.323Z,48.14
2023-05-12T09:01:48.040Z,45.84
2023-05-12T09:03:12.225Z,45.78
2023-05-12T09:03:49.029Z,50.39
2023-05-12T09:04:48.079Z,46.16
2023-05-12T09:05:47.972Z,53.52
2023-05-12T09:06:47.942Z,45.10
2023-05-12T09:07:48.060Z,46.96
2023-05-12T09:08:47.944Z,50.86
2023-05-12T09:09:47.922Z,49.71
2023-05-12T09:10:47.926Z,53.55
2023-05-12T09:11:47.905Z,52.77
2023-05-12T09:12:47.920Z,47.36
2023-05-12T09:13:47.877Z,54.11
2023-05-12T09:14:47.900Z,46.73
2023-05-12T09:15:47.895Z,49.58
2023-05-12T09:16:47.960Z,48.63
2023-05-12T09:17:47.890Z,46.36
2023-05-12T09:18:47.827Z,51.05
2023-05-12T09:19:47.812Z,51.35
2023-05-12T09:20:47.811Z,44.53
2023-05-12T09:21:47.798Z,50.85
2023-05-12T09:22:47.783Z,49.38
2023-05-12T09:23:47.770Z,46.68
2023-05-12T09:24:47.764Z,45.65
2023-05-12T09:25:47.752Z,42.33
2023-05-12T09:26:47.784Z,48.88
2023-05-12T09:27:47.728Z,51.42
2023-05-12T09:28:47.712Z,50.38
2023-05-12T09:29:58.111Z,51.48
2023-05-12T09:30:48.704Z,42.48
2023-05-12T09:31:47.769Z,45.23
2023-05-12T09:32:47.738Z,51.89
2023-05-12T09:33:47.664Z,49.23
2023-05-12T09:34:47.657Z,50.39
2023-05-12T09:35:47.661Z,51.25
2023-05-12T09:36:47.634Z,47.31
2023-05-12T09:37:47.628Z,49.06
2023-05-12T09:38:47.621Z,48.70
2023-05-12T09:39:47.624Z,49.64
2023-05-12T09:40:47.600Z,51.44
2023-05-12T09:41:47.593Z,47.71
2023-05-12T09:42:47.585Z,47.07
2023-05-12T09:43:47.565Z,51.86
2023-05-12T09:44:47.592Z,46.01
2023-05-12T09:45:47.722Z,51.54
2023-05-12T09:46:48.673Z,46.48
2023-05-12T09:47:48.672Z,47.87
2023-05-12T09:48:48.686Z,51.97
2023-05-12T09:49:48.646Z,53.34
2023-05-12T09:50:48.824Z,50.65
2023-05-12T09:51:48.602Z,47.00
2023-05-12T09:52:48.602Z,46.25
2023-05-12T09:53:49.166Z,51.63
2023-05-12T09:55:03.554Z,48.25
2023-05-12T09:55:48.569Z,45.39
2023-05-12T09:56:49.575Z,47.67
2023-05-12T09:57:49.484Z,49.71
2023-05-12T09:58:48.581Z,47.13
2023-05-12T10:00:14.031Z,47.91
2023-05-12T10:01:12.870Z,50.51
2023-05-12T10:01:50.593Z,51.18
2023-05-12T10:02:49.919Z,47.97
2023-05-12T10:03:48.522Z,50.17
2023-05-12T10:04:48.734Z,48.87
2023-05-12T10:05:48.568Z,50.20
2023-05-12T10:06:48.512Z,52.30
2023-05-12T10:07:48.543Z,49.78
2023-05-12T10:08:48.505Z,51.00
2023-05-12T10:09:48.484Z,50.71
2023-05-12T10:10:48.471Z,45.48
2023-05-12T10:11:51.291Z,49.25
2023-05-12T10:12:48.484Z,45.60
2023-05-12T10:13:48.430Z,47.43
2023-05-12T10:14:48.420Z,49.78
2023-05-12T10:15:48.413Z,49.66
2023-05-12T10:16:48.531Z,46.27
2023-05-12T10:17:48.428Z,47.65
2023-05-12T10:18:48.535Z,50.86
2023-05-12T10:19:48.391Z,51.13
2023-05-12T10:20:48.383Z,44.30
2023-05-12T10:21:48.366Z,46.30
2023-05-12T10:22:48.347Z,44.84
2023-05-12T10:23:48.356Z,47.79
2023-05-12T10:24:48.363Z,44.83
2023-05-12T10:25:48.362Z,45.96
2023-05-12T10:26:48.355Z,50.62
2023-05-12T10:27:48.424Z,45.82
2023-05-12T10:28:48.326Z,51.08
2023-05-12T10:29:48.319Z,50.30
2023-05-12T10:30:48.283Z,48.43
2023-05-12T10:31:48.316Z,53.55
2023-05-12T10:32:48.363Z,51.67
2023-05-12T10:33:48.258Z,46.18
2023-05-12T10:34:48.265Z,46.31
2023-05-12T10:35:49.638Z,50.63
2023-05-12T10:36:49.285Z,50.29
2023-05-12T10:37:48.257Z,51.03
2023-05-12T10:38:48.265Z,44.46
2023-05-12T10:39:48.168Z,47.72
2023-05-12T10:40:48.186Z,49.34
2023-05-12T10:41:48.178Z,42.63
2023-05-12T10:42:48.142Z,46.28
2023-05-12T10:43:48.115Z,50.65
2023-05-12T10:44:48.133Z,49.31
2023-05-12T10:45:48.117Z,46.45
2023-05-12T10:46:48.162Z,47.68
2023-05-12T10:47:48.117Z,47.07
2023-05-12T10:48:48.085Z,44.98
2023-05-12T10:49:48.063Z,44.39
2023-05-12T10:50:48.081Z,50.82
2023-05-12T10:51:48.052Z,42.65
2023-05-12T10:52:48.199Z,49.75
2023-05-12T10:53:51.288Z,50.15
2023-05-12T10:54:50.075Z,51.46
2023-05-12T10:55:48.341Z,47.01
2023-05-12T10:56:48.446Z,47.14
2023-05-12T10:57:48.348Z,46.74
2023-05-12T10:58:48.382Z,46.81
2023-05-12T10:59:48.255Z,44.81
2023-05-12T11:00:48.700Z,44.62
2023-05-12T11:01:49.449Z,43.83
2023-05-12T11:02:48.766Z,47.62
2023-05-12T11:03:50.026Z,44.72
2023-05-12T11:04:48.209Z,51.08
2023-05-12T11:05:48.934Z,50.00
2023-05-12T11:06:48.771Z,51.58
2023-05-12T11:07:47.996Z,46.02
2023-05-12T11:08:48.406Z,48.48
2023-05-12T11:09:57.448Z,47.50
2023-05-12T11:10:50.888Z,50.93
2023-05-12T11:11:47.939Z,44.15
2023-05-12T11:12:47.842Z,52.44
2023-05-12T11:13:47.878Z,49.14
2023-05-12T11:14:50.843Z,46.96
2023-05-12T11:15:47.882Z,49.50
2023-05-12T11:16:47.992Z,48.43
2023-05-12T11:17:47.902Z,51.78
2023-05-12T11:18:47.878Z,52.77
2023-05-12T11:19:47.832Z,47.70
2023-05-12T11:20:48.838Z,49.68
2023-05-12T11:21:47.845Z,46.55
2023-05-12T11:22:49.249Z,49.02
2023-05-12T11:23:47.801Z,50.21
2023-05-12T11:24:47.792Z,52.10
2023-05-12T11:25:47.818Z,51.99
2023-05-12T11:26:47.775Z,50.04
2023-05-12T11:27:47.795Z,46.16
2023-05-12T11:28:47.763Z,50.77
2023-05-12T11:29:47.675Z,45.35
2023-05-12T11:30:47.711Z,50.25
2023-05-12T11:31:47.809Z,53.63
2023-05-12T11:32:47.741Z,51.40
2023-05-12T11:33:47.672Z,54.24
2023-05-12T11:34:47.695Z,52.34
2023-05-12T11:35:47.675Z,53.60
2023-05-12T11:36:47.674Z,51.27
2023-05-12T11:37:47.674Z,50.38
2023-05-12T11:38:47.648Z,53.37
2023-05-12T11:39:47.642Z,46.87
2023-05-12T11:40:47.656Z,48.85
2023-05-12T11:41:47.657Z,49.50
2023-05-12T11:42:47.651Z,50.49
2023-05-12T11:43:47.585Z,47.49
2023-05-12T11:44:47.590Z,48.43
2023-05-12T11:45:47.631Z,47.31
2023-05-12T11:46:47.571Z,46.41
2023-05-12T11:47:47.569Z,46.83
2023-05-12T11:48:47.553Z,46.21
2023-05-12T11:49:47.547Z,46.79
2023-05-12T11:50:47.506Z,50.28
2023-05-12T11:51:47.681Z,49.32
2023-05-12T11:52:47.535Z,49.72
2023-05-12T11:53:47.517Z,46.05
2023-05-12T11:54:47.518Z,48.45
2023-05-12T11:55:47.509Z,51.18
2023-05-12T11:56:47.474Z,52.40
2023-05-12T11:57:47.448Z,47.37
2023-05-12T11:58:47.428Z,48.20
2023-05-12T11:59:47.420Z,45.55
2023-05-12T12:00:47.460Z,49.75
2023-05-12T12:01:47.438Z,46.60
2023-05-12T12:02:47.430Z,48.48
2023-05-12T12:03:47.443Z,49.07
2023-05-12T12:04:47.395Z,47.66
2023-05-12T12:05:47.362Z,52.45
2023-05-12T12:06:47.372Z,49.48
2023-05-12T12:07:47.333Z,51.73
2023-05-12T12:08:47.332Z,47.11
2023-05-12T12:09:47.335Z,49.75
2023-05-12T12:10:47.352Z,45.95
2023-05-12T12:11:47.311Z,50.83
2023-05-12T12:12:47.302Z,49.95
2023-05-12T12:13:47.301Z,52.75
2023-05-12T12:14:47.330Z,52.87
2023-05-12T12:15:47.369Z,52.43
2023-05-12T12:16:47.312Z,52.50
2023-05-12T12:17:47.292Z,51.71
2023-05-12T12:18:47.284Z,50.03
2023-05-12T12:19:47.193Z,49.02
2023-05-12T12:20:47.229Z,48.82
2023-05-12T12:21:47.213Z,45.57
2023-05-12T12:22:47.215Z,51.96
2023-05-12T12:23:51.203Z,54.77
2023-05-12T12:24:48.211Z,49.99
2023-05-12T12:25:47.169Z,49.88
2023-05-12T12:26:47.177Z,48.10
2023-05-12T12:27:47.185Z,49.66
2023-05-12T12:28:47.213Z,48.61
2023-05-12T12:29:47.151Z,51.25
2023-05-12T12:30:47.164Z,53.04
2023-05-12T12:31:47.206Z,46.97
2023-05-12T12:32:47.133Z,49.79
2023-05-12T12:33:47.132Z,50.77
2023-05-12T12:34:47.135Z,51.77
2023-05-12T12:35:47.063Z,52.21
2023-05-12T12:36:47.089Z,51.71
2023-05-12T12:37:47.050Z,48.71
2023-05-12T12:38:47.031Z,51.95
2023-05-12T12:39:46.975Z,54.13
2023-05-12T12:40:46.979Z,46.82
2023-05-12T12:41:46.952Z,49.94
2023-05-12T12:42:46.984Z,46.55
2023-05-12T12:43:46.965Z,47.99
2023-05-12T12:44:46.926Z,51.35
2023-05-12T12:45:46.910Z,51.20
2023-05-12T12:46:46.936Z,49.00
2023-05-12T12:47:46.940Z,48.63
2023-05-12T12:48:46.898Z,52.61
2023-05-12T12:49:46.901Z,50.85
2023-05-12T12:50:46.878Z,50.11
2023-05-12T12:51:47.365Z,47.89
2023-05-12T12:52:46.877Z,49.44
2023-05-12T12:53:46.884Z,48.51
2023-05-12T12:54:46.836Z,46.17
2023-05-12T12:55:46.826Z,48.62
2023-05-12T12:56:46.890Z,52.00
2023-05-12T12:57:46.845Z,49.76
2023-05-12T12:58:46.853Z,45.96
2023-05-12T12:59:46.808Z,50.59
2023-05-12T13:00:46.836Z,54.06
2023-05-12T13:01:46.878Z,53.32
2023-05-12T13:02:46.845Z,51.08
2023-05-12T13:03:46.824Z,53.41
2023-05-12T13:04:46.723Z,52.04
2023-05-12T13:05:46.798Z,54.85
2023-05-12T13:06:46.784Z,52.24
2023-05-12T13:07:46.764Z,49.66
2023-05-12T13:08:46.755Z,54.43
2023-05-12T13:09:46.716Z,58.48
2023-05-12T13:10:46.717Z,57.93
2023-05-12T13:11:46.697Z,54.82
2023-05-12T13:12:46.698Z,54.30
2023-05-12T13:13:46.686Z,53.53